Topeka, Mississippi
Current Conditions -  °F | °C
As of 2:15 PM on Saturday 25 Oct 2014 (Local Time) from K1R7 Reporting Station
Clear Clear  
Wind Chill: 79°   Ceiling: Unl
Heat Index: 80°   Visibility: 10mi
Dew Point: 59°   Wind: 5mph
Humidity: 51%   Direction: 340°NNW
Pressure: 30.12"   Gusts: NA
Location:  31.4096°N, 90.1856°W
Report Text: K1R7 251915Z AUTO 34004KT 10SM CLR 26/15 A3012 RMK AO2
Loading
Personal Weather Stations






























Interactive Weather Map
Tropical Storm Tracking
New forecast layout! Learn more

10-Day Weather Forecast

Advertisements
Track Severe Weather on mobile